createdAt,value
2019-05-02T00:03:06.005Z,7.2
2019-05-02T00:08:00.519Z,7.3
2019-05-02T00:13:00.452Z,7.3
2019-05-02T00:18:02.891Z,7.2
2019-05-02T00:23:00.541Z,7.3
2019-05-02T00:28:00.469Z,7.4
2019-05-02T00:33:00.474Z,7.3
2019-05-02T00:38:04.022Z,7.3
2019-05-02T00:43:00.451Z,7.2
2019-05-02T00:48:00.453Z,7.4
2019-05-02T00:53:00.479Z,7.2
2019-05-02T00:58:00.469Z,7.3
2019-05-02T01:03:00.511Z,7.4
2019-05-02T01:08:03.217Z,7.5
2019-05-02T01:13:00.475Z,7
2019-05-02T01:18:08.148Z,7.2
2019-05-02T01:23:00.452Z,7.2
2019-05-02T01:28:00.363Z,7.2
2019-05-02T01:33:07.886Z,7.3
2019-05-02T01:38:00.395Z,7
2019-05-02T01:43:01.678Z,7.4
2019-05-02T01:48:00.419Z,7.1
2019-05-02T01:53:00.362Z,7.1
2019-05-02T01:58:00.384Z,7.1
2019-05-02T02:03:10.586Z,7.3
2019-05-02T02:13:05.527Z,7.1
2019-05-02T02:18:00.365Z,6.9
2019-05-02T02:23:00.348Z,7.1
2019-05-02T02:28:01.234Z,7.3
2019-05-02T02:33:10.289Z,7.3
2019-05-02T02:38:00.336Z,7.2
2019-05-02T02:43:35.365Z,7.2
2019-05-02T02:48:02.849Z,7.1
2019-05-02T02:53:00.385Z,7.1
2019-05-02T02:58:06.872Z,7.1
2019-05-02T03:03:00.297Z,7.3
2019-05-02T03:08:07.588Z,7.2
2019-05-02T03:13:00.393Z,7.1
2019-05-02T03:18:02.446Z,7.2
2019-05-02T03:23:00.357Z,7.1
2019-05-02T03:28:00.290Z,7.4
2019-05-02T03:33:13.054Z,7.3
2019-05-02T03:38:00.263Z,7.3
2019-05-02T03:43:00.312Z,7.1
2019-05-02T03:48:00.297Z,7.3
2019-05-02T03:53:00.318Z,7.2
2019-05-02T03:58:00.290Z,7.4
2019-05-02T04:03:02.919Z,7.2
2019-05-02T04:08:00.209Z,7.3
2019-05-02T04:13:00.330Z,7.4
2019-05-02T04:18:00.261Z,7.4
2019-05-02T04:23:00.237Z,7.5
2019-05-02T04:28:00.224Z,7.4
2019-05-02T04:33:00.242Z,7.3
2019-05-02T04:38:47.562Z,7.5
2019-05-02T04:43:11.968Z,7.2
2019-05-02T04:48:04.565Z,7.5
2019-05-02T04:53:00.228Z,7.6
2019-05-02T04:58:02.133Z,7.3
2019-05-02T05:03:00.235Z,7.4
2019-05-02T05:08:01.412Z,7.7
2019-05-02T05:13:00.217Z,7.7
2019-05-02T05:18:14.786Z,7.9
2019-05-02T05:23:00.172Z,8
2019-05-02T05:28:09.381Z,7.8
2019-05-02T05:33:00.191Z,7.7
2019-05-02T05:38:00.240Z,7.8
2019-05-02T05:48:01.373Z,8.3
2019-05-02T05:53:00.902Z,8.5
2019-05-02T05:58:18.951Z,8.2
2019-05-02T06:03:14.372Z,8.3
2019-05-02T06:08:00.848Z,8.4
2019-05-02T06:13:13.085Z,8.7
2019-05-02T06:18:06.389Z,8.8
2019-05-02T06:23:01.514Z,8.8
2019-05-02T06:28:07.110Z,8.9
2019-05-02T06:33:00.850Z,9.1
2019-05-02T06:38:00.803Z,9.1
2019-05-02T06:43:11.557Z,10.1
2019-05-02T06:48:01.505Z,9.6
2019-05-02T06:53:11.403Z,9.7
2019-05-02T06:58:08.550Z,9.5
2019-05-02T07:03:11.835Z,9.9
2019-05-02T07:08:01.033Z,10.3
2019-05-02T07:13:15.658Z,10.4
2019-05-02T07:18:12.401Z,10.1
2019-05-02T07:23:00.785Z,10.8
2019-05-02T07:28:10.982Z,10.2
2019-05-02T07:33:02.603Z,10.7
2019-05-02T07:38:00.807Z,9.8
2019-05-02T07:43:00.770Z,10.2
2019-05-02T07:48:01.912Z,10.5
2019-05-02T07:53:14.536Z,10.5
2019-05-02T07:58:08.465Z,10.7
2019-05-02T08:03:00.769Z,11.2
2019-05-02T08:08:00.725Z,10.9
2019-05-02T08:13:00.753Z,10.9
2019-05-02T08:18:00.734Z,11
2019-05-02T08:23:00.729Z,11.1
2019-05-02T08:28:00.755Z,11.2
2019-05-02T08:33:00.734Z,11.2
2019-05-02T08:38:00.741Z,11.8
2019-05-02T08:43:11.117Z,12.8
2019-05-02T08:48:06.864Z,12.3
2019-05-02T08:53:00.732Z,13.1
2019-05-02T08:58:00.705Z,13.7
2019-05-02T09:03:04.990Z,13.5
2019-05-02T09:08:00.693Z,13.5
2019-05-02T09:13:02.885Z,14.1
2019-05-02T09:18:03.088Z,13.3
2019-05-02T09:23:01.978Z,14
2019-05-02T09:28:02.126Z,14.6
2019-05-02T09:33:06.990Z,14.6
2019-05-02T09:43:05.056Z,15.6
2019-05-02T09:48:08.560Z,16.5
2019-05-02T10:49:22.829Z,19.8
2019-05-02T11:09:26.610Z,21.2
2019-05-02T11:39:59.870Z,21.5
2019-05-02T11:59:15.225Z,21.2
2019-05-02T12:04:17.216Z,19.9
2019-05-02T12:19:15.187Z,21.3
2019-05-02T12:49:28.248Z,20.4
2019-05-02T13:14:22.004Z,22.9
2019-05-02T13:19:15.380Z,26.1
2019-05-02T13:24:16.866Z,21.4
2019-05-02T13:34:15.207Z,19.5
2019-05-02T14:04:15.398Z,19.4
2019-05-02T14:09:22.688Z,20
2019-05-02T14:24:15.009Z,18.9
2019-05-02T14:29:16.601Z,18.8
2019-05-02T14:34:19.276Z,19
2019-05-02T14:45:20.312Z,18.6
2019-05-02T14:49:25.747Z,18.2
2019-05-02T14:59:22.950Z,18.1
2019-05-02T15:09:27.235Z,18
2019-05-02T15:14:22.596Z,17.6
2019-05-02T15:29:27.741Z,17.3
2019-05-02T15:40:53.927Z,17.5
2019-05-02T15:44:19.057Z,17.1
2019-05-02T15:54:22.882Z,17.1
2019-05-02T16:04:25.939Z,18.1
2019-05-02T16:09:21.799Z,18.9
2019-05-02T16:19:29.963Z,17.4
2019-05-02T16:29:29.309Z,17.6
2019-05-02T16:34:15.244Z,17.7
2019-05-02T16:39:15.735Z,18.8
2019-05-02T16:49:18.947Z,17
2019-05-02T16:59:23.370Z,16.5
2019-05-02T17:24:26.383Z,15.8
2019-05-02T17:29:22.888Z,15.7
2019-05-02T17:39:26.259Z,15.5
2019-05-02T17:44:25.691Z,15.4
2019-05-02T17:49:37.072Z,15.4
2019-05-02T17:54:26.550Z,15.2
2019-05-02T17:59:37.849Z,15.1
2019-05-02T18:06:55.509Z,15.1
2019-05-02T18:30:28.697Z,14.6
2019-05-02T18:35:19.717Z,14.6
2019-05-02T19:19:22.803Z,13.9
2019-05-02T19:31:46.610Z,13.8
2019-05-02T19:36:36.760Z,13.8
2019-05-02T19:41:45.861Z,13.8
2019-05-02T19:46:39.277Z,13.6
2019-05-02T19:51:36.655Z,13.5
2019-05-02T19:56:47.866Z,13.5
2019-05-02T20:01:36.687Z,13.4
2019-05-02T20:06:36.694Z,13.5
2019-05-02T20:11:37.421Z,13.3
2019-05-02T20:16:46.100Z,13.3
2019-05-02T20:21:38.481Z,13.3
2019-05-02T20:26:38.426Z,13.3
2019-05-02T20:31:38.426Z,13.1
2019-05-02T20:36:38.444Z,13.1
2019-05-02T20:41:42.258Z,13.1
2019-05-02T20:46:38.409Z,13
2019-05-02T20:51:38.468Z,13.1
2019-05-02T20:56:38.413Z,13
2019-05-02T21:01:38.427Z,12.9
2019-05-02T21:06:44.366Z,12.7
2019-05-02T21:11:38.376Z,12.6
2019-05-02T21:26:42.391Z,12.5
2019-05-02T21:31:42.799Z,12.3
2019-05-02T21:36:45.519Z,12.4
2019-05-02T21:41:42.574Z,12.3
2019-05-02T21:46:42.610Z,12.4
2019-05-02T21:56:43.259Z,12.4
2019-05-02T22:01:42.502Z,12.1
2019-05-02T22:06:43.046Z,12.4
2019-05-02T22:11:43.310Z,12.3
2019-05-02T22:16:42.498Z,12.2
2019-05-02T22:21:43.283Z,12
2019-05-02T22:26:43.803Z,12.1
2019-05-02T22:36:41.824Z,11.9
2019-05-02T22:41:42.205Z,11.8
2019-05-02T22:46:43.986Z,11.9
2019-05-02T22:51:46.282Z,11.9
2019-05-02T22:56:42.891Z,11.8
2019-05-02T23:01:42.510Z,11.9
2019-05-02T23:06:44.511Z,11.8
2019-05-02T23:11:43.037Z,11.8
2019-05-02T23:16:43.133Z,11.8
2019-05-02T23:21:42.663Z,11.8
2019-05-02T23:26:42.405Z,11.7
2019-05-02T23:31:42.510Z,11.7
